Arctic Taglu — CY8968 — position and weather

sailwx.info

Track history (hours):
 
Tides and Currents Weather Stations Pressure Air Temp Water Temp Dewpoint Dewpoint Depression Visibility Wind Speed Wind Dir Waves Ship Positions

Arctic Taglu

Last reported at 2015-Mar-02 18:31 UTC. Time now 2015-Mar-02 19:05 UTC.
Position N 49°09' W 123°02'.

Length 33 m; draft 6 m.

Type: Tug. MMSI: 316003483.

Date/timePositionNaut miles runAvg speedWind from/ knotsBaromVisibWave heightAir tempDewpointWater temp
2015-Mar-02 18:31N 49°09' W 123°02'0 0.0
2015-Mar-02 17:31N 49°09' W 123°02'0 0.0
2015-Mar-02 16:31N 49°09' W 123°02'0 0.0
2015-Mar-02 15:31N 49°09' W 123°02'0 0.0
2015-Mar-02 14:31N 49°09' W 123°02'0 0.0
2015-Mar-02 13:28N 49°09' W 123°02'0 0.0
2015-Mar-02 12:31N 49°09' W 123°02'0 0.0
2015-Mar-02 11:31N 49°09' W 123°02'0 0.0
2015-Mar-02 10:31N 49°09' W 123°02'0 0.0
2015-Mar-02 09:31N 49°09' W 123°02'0 0.0
2015-Mar-02 08:31N 49°09' W 123°02'0 0.0
2015-Mar-02 07:31N 49°09' W 123°02'0 0.0
2015-Mar-02 06:31N 49°09' W 123°02'0 0.0
2015-Mar-02 05:31N 49°09' W 123°02'0 0.0
2015-Mar-02 04:31N 49°09' W 123°02'0 0.0
2015-Mar-02 03:31N 49°09' W 123°02'0 0.0
2015-Mar-02 02:31N 49°09' W 123°02'0 0.0
2015-Mar-02 01:31N 49°09' W 123°02'0 0.0
2015-Mar-02 00:31N 49°09' W 123°02'0 0.0
2015-Mar-01 23:31N 49°09' W 123°02'0 0.0
2015-Mar-01 22:31N 49°09' W 123°02'0 0.0
2015-Mar-01 21:31N 49°09' W 123°02'0 0.0
2015-Mar-01 20:31N 49°09' W 123°02'0 0.0
2015-Mar-01 19:31N 49°09' W 123°02'0 0.0
2015-Mar-01 18:28N 49°09' W 123°02'0 0.0
2015-Mar-01 17:31N 49°09' W 123°02'0 0.0
2015-Mar-01 16:31N 49°09' W 123°02'0 0.0
2015-Mar-01 15:31N 49°09' W 123°02'0 0.0
2015-Mar-01 14:31N 49°09' W 123°02'0 0.0
2015-Mar-01 13:31N 49°09' W 123°02'0 0.0
2015-Mar-01 12:31N 49°09' W 123°02'0 0.0
2015-Mar-01 11:31N 49°09' W 123°02'0 0.0
2015-Mar-01 10:31N 49°09' W 123°02'0 0.0
2015-Mar-01 09:31N 49°09' W 123°02'0 0.0
2015-Mar-01 08:28N 49°09' W 123°02'0 0.0
2015-Mar-01 07:31N 49°09' W 123°02'0 0.0
2015-Mar-01 06:31N 49°09' W 123°02'0 0.0
2015-Mar-01 05:31N 49°09' W 123°02'0 0.0
2015-Mar-01 04:31N 49°09' W 123°02'0 0.0
2015-Mar-01 03:31N 49°09' W 123°02'0 0.0
2015-Mar-01 02:31N 49°09' W 123°02'0 0.0
2015-Mar-01 01:31N 49°09' W 123°02'0 0.0
2015-Mar-01 00:31N 49°09' W 123°02'0 0.0
2015-Feb-28 23:31N 49°09' W 123°02'0 0.0
2015-Feb-28 22:31N 49°09' W 123°02'0 0.0
2015-Feb-28 21:31N 49°09' W 123°02'0 0.0
2015-Feb-28 20:31N 49°09' W 123°02'0 0.0
2015-Feb-28 19:31N 49°09' W 123°02'0 0.0
2015-Feb-28 18:31N 49°09' W 123°02'0 0.0
2015-Feb-28 17:33N 49°09' W 123°02'0 0.0
2015-Feb-28 16:33N 49°09' W 123°02'0 0.1
2015-Feb-28 15:33N 49°09' W 123°02'4 4.1
2015-Feb-28 14:33N 49°07' W 123°08'9 8.7
2015-Feb-28 13:33N 49°06' W 123°21'1010.0
2015-Feb-28 12:33N 49°10' W 123°35'10 9.8
2015-Feb-28 11:33N 49°13' W 123°50'5 5.0
2015-Feb-28 10:33N 49°10' W 123°56'0 0.0
2015-Feb-28 09:33N 49°10' W 123°56'5 4.8
2015-Feb-28 08:33N 49°13' W 123°50'1010.1
2015-Feb-28 07:33N 49°10' W 123°35'1010.0
2015-Feb-28 06:33N 49°07' W 123°21'1010.0
2015-Feb-28 05:33N 49°07' W 123°06'3 2.8
2015-Feb-28 04:33N 49°09' W 123°02'0 0.0
2015-Feb-28 03:33N 49°09' W 123°02'0 0.0
2015-Feb-28 02:33N 49°09' W 123°02'0 0.0
2015-Feb-28 01:33N 49°09' W 123°02'0 0.0
2015-Feb-28 00:33N 49°09' W 123°02'0 0.0
2015-Feb-27 23:33N 49°09' W 123°02'0 0.0
2015-Feb-27 22:33N 49°09' W 123°02'0 0.0
2015-Feb-27 21:33N 49°09' W 123°02'0 0.0
2015-Feb-27 20:33N 49°09' W 123°02'0 0.0
2015-Feb-27 19:33N 49°09' W 123°02'0 0.0
2015-Feb-27 18:33N 49°09' W 123°02'0 0.0
2015-Feb-27 17:33N 49°09' W 123°02'0 0.0
2015-Feb-27 16:33N 49°09' W 123°02'0 0.0
2015-Feb-27 15:33N 49°09' W 123°02'4 4.5
2015-Feb-27 14:33N 49°06' W 123°08'9 8.6
2015-Feb-27 13:33N 49°06' W 123°21'10 9.9
2015-Feb-27 12:33N 49°10' W 123°36'10 9.6
2015-Feb-27 11:33N 49°13' W 123°49'5 5.3
2015-Feb-27 10:33N 49°10' W 123°56'0 0.0
2015-Feb-27 09:33N 49°10' W 123°56'6 6.2
2015-Feb-27 08:33N 49°13' W 123°48'1010.4
2015-Feb-27 07:33N 49°09' W 123°33'1010.0
2015-Feb-27 06:33N 49°06' W 123°18'10 9.5
2015-Feb-27 05:33N 49°08' W 123°04'2 1.5
2015-Feb-27 04:33N 49°09' W 123°02'0 0.0
2015-Feb-27 03:33N 49°09' W 123°02'0 0.1
2015-Feb-27 02:33N 49°09' W 123°02'0 0.0
2015-Feb-27 01:33N 49°09' W 123°02'0 0.0
2015-Feb-27 00:33N 49°09' W 123°02'0 0.0
2015-Feb-26 23:33N 49°09' W 123°02'0 0.0
2015-Feb-26 22:33N 49°09' W 123°02'0 0.0
2015-Feb-26 21:33N 49°09' W 123°02'0 0.0
2015-Feb-26 20:33N 49°09' W 123°02'0 0.0
2015-Feb-26 19:33N 49°09' W 123°02'0 0.0
2015-Feb-26 18:33N 49°09' W 123°02'0 0.0
2015-Feb-26 17:33N 49°09' W 123°02'0 0.0
2015-Feb-26 16:33N 49°09' W 123°02'0 0.0
2015-Feb-26 15:33N 49°09' W 123°02'6 5.6
2015-Feb-26 14:33N 49°07' W 123°10'8 8.1
2015-Feb-26 13:33N 49°07' W 123°23'10 9.5
2015-Feb-26 12:33N 49°10' W 123°36'9 9.4
2015-Feb-26 11:33N 49°13' W 123°50'5 5.0
2015-Feb-26 10:33N 49°10' W 123°56'0 0.0
2015-Feb-26 09:33N 49°10' W 123°56'6 5.9
2015-Feb-26 08:33N 49°13' W 123°48'1010.3
2015-Feb-26 07:33N 49°09' W 123°33'1010.1
2015-Feb-26 06:33N 49°06' W 123°19'9 9.2
2015-Feb-26 05:33N 49°07' W 123°05'2 2.1
2015-Feb-26 04:33N 49°09' W 123°02'0 0.0
2015-Feb-26 03:33N 49°09' W 123°02'0 0.0
2015-Feb-26 02:33N 49°09' W 123°02'0 0.0
2015-Feb-26 01:33N 49°09' W 123°02'0 0.0
2015-Feb-26 00:33N 49°09' W 123°02'0 0.0
2015-Feb-25 23:33N 49°09' W 123°02'0 0.0
2015-Feb-25 22:33N 49°09' W 123°02'0 0.0
2015-Feb-25 21:33N 49°09' W 123°02'0 0.0
2015-Feb-25 20:33N 49°09' W 123°02'0 0.0
2015-Feb-25 19:33N 49°09' W 123°02'0 0.0
2015-Feb-25 18:33N 49°09' W 123°02'0 0.0
2015-Feb-25 17:33N 49°09' W 123°02'0 0.1
2015-Feb-25 16:33N 49°09' W 123°02'0 0.0
2015-Feb-25 15:33N 49°09' W 123°02'5 5.0
2015-Feb-25 14:33N 49°06' W 123°09'8 8.1
2015-Feb-25 13:33N 49°07' W 123°21'10 9.7
2015-Feb-25 12:33N 49°10' W 123°35'10 9.6
2015-Feb-25 11:33N 49°13' W 123°49'5 5.1
2015-Feb-25 10:33N 49°10' W 123°56'0 0.0
2015-Feb-25 09:33N 49°10' W 123°56'6 5.7
2015-Feb-25 08:33N 49°12' W 123°48'1010.0
2015-Feb-25 07:33N 49°09' W 123°33'10 9.8
2015-Feb-25 06:33N 49°06' W 123°19'9 9.1
2015-Feb-25 05:33N 49°07' W 123°05'2 2.4
2015-Feb-25 04:33N 49°09' W 123°02'0 0.0
2015-Feb-25 03:33N 49°09' W 123°02'0 0.1
2015-Feb-25 02:33N 49°09' W 123°02'0 0.0
2015-Feb-25 01:33N 49°09' W 123°02'0 0.0
2015-Feb-25 00:33N 49°09' W 123°02'0 0.0
2015-Feb-24 23:33N 49°09' W 123°02'0 0.0
2015-Feb-24 22:33N 49°09' W 123°02'0 0.0
2015-Feb-24 21:33N 49°09' W 123°02'0 0.0
2015-Feb-24 20:33N 49°09' W 123°02'0 0.0
2015-Feb-24 19:33N 49°09' W 123°02'0 0.0
2015-Feb-24 18:33N 49°09' W 123°02'0 0.0
2015-Feb-24 17:33N 49°09' W 123°02'0 0.1
2015-Feb-24 16:33N 49°09' W 123°02'0 0.0
2015-Feb-24 15:33N 49°09' W 123°02'5 5.0
2015-Feb-24 14:33N 49°07' W 123°09'9 8.5
2015-Feb-24 13:33N 49°06' W 123°22'10 9.8
2015-Feb-24 12:33N 49°10' W 123°36'10 9.5
2015-Feb-24 11:33N 49°13' W 123°50'5 4.5
2015-Feb-24 10:33N 49°10' W 123°56'0 0.0
2015-Feb-24 09:33N 49°10' W 123°56'6 6.1
2015-Feb-24 08:33N 49°12' W 123°47'10 9.7
2015-Feb-24 07:33N 49°09' W 123°33'10 9.7
2015-Feb-24 06:33N 49°06' W 123°19'9 9.1
2015-Feb-24 05:33N 49°07' W 123°05'2 2.2
2015-Feb-24 04:33N 49°09' W 123°02'0 0.0
2015-Feb-24 03:33N 49°09' W 123°02'0 0.0
2015-Feb-24 02:33N 49°09' W 123°02'0 0.0
2015-Feb-24 01:33N 49°09' W 123°02'0 0.0
2015-Feb-24 00:33N 49°09' W 123°02'0 0.0
2015-Feb-23 23:33N 49°09' W 123°02'0 0.0
2015-Feb-23 22:33N 49°09' W 123°02'0 0.0
2015-Feb-23 21:33N 49°09' W 123°02'0 0.0
2015-Feb-23 20:33N 49°09' W 123°02'0 0.0
2015-Feb-23 19:33N 49°09' W 123°02'0 0.0
2015-Feb-23 18:33N 49°09' W 123°02'0 0.0
2015-Feb-23 17:33N 49°09' W 123°02'0 0.0
2015-Feb-23 16:33N 49°09' W 123°02'0 0.0
2015-Feb-23 15:33N 49°09' W 123°02'0 0.0
2015-Feb-23 14:33N 49°09' W 123°02'0 0.0
2015-Feb-23 13:33N 49°09' W 123°02'0 0.0
2015-Feb-23 12:33N 49°09' W 123°02'0 0.0
2015-Feb-23 11:33N 49°09' W 123°02'0 0.0
2015-Feb-23 10:33N 49°09' W 123°02'0 0.0
2015-Feb-23 09:33N 49°09' W 123°02'0 0.0
2015-Feb-23 08:33N 49°09' W 123°02'0 0.0
2015-Feb-23 07:33N 49°09' W 123°02'0 0.0
2015-Feb-23 06:33N 49°09' W 123°02'0 0.0
2015-Feb-23 05:33N 49°09' W 123°02'0 0.0
2015-Feb-23 04:33N 49°09' W 123°02'0 0.0
2015-Feb-23 03:33N 49°09' W 123°02'0 0.0
2015-Feb-23 02:30N 49°09' W 123°02'0 0.0
2015-Feb-23 01:33N 49°09' W 123°02'0 0.0
2015-Feb-23 00:33N 49°09' W 123°02'0 0.0
2015-Feb-22 23:33N 49°09' W 123°02'0 0.0
2015-Feb-22 22:33N 49°09' W 123°02'0 0.0
2015-Feb-22 21:30N 49°09' W 123°02'0 0.0
2015-Feb-22 20:33N 49°09' W 123°02'0 0.0
2015-Feb-22 19:33N 49°09' W 123°02'0 0.0
2015-Feb-22 18:30N 49°09' W 123°02'0 0.0
2015-Feb-22 17:33N 49°09' W 123°02'0 0.0
2015-Feb-22 16:33N 49°09' W 123°02'0 0.0
2015-Feb-22 15:33N 49°09' W 123°02'0 0.0
2015-Feb-22 14:30N 49°09' W 123°02'0 0.0
2015-Feb-22 13:33N 49°09' W 123°02'0 0.0
2015-Feb-22 12:33N 49°09' W 123°02'0 0.0
2015-Feb-22 11:33N 49°09' W 123°02'0 0.0
2015-Feb-22 10:33N 49°09' W 123°02'0 0.0
2015-Feb-22 09:33N 49°09' W 123°02'0 0.0
2015-Feb-22 08:33N 49°09' W 123°02'0 0.0
2015-Feb-22 07:33N 49°09' W 123°02'0 0.0
2015-Feb-22 06:33N 49°09' W 123°02'0 0.0
2015-Feb-22 05:30N 49°09' W 123°02'0 0.0
2015-Feb-22 04:33N 49°09' W 123°02'0 0.0
2015-Feb-22 03:33N 49°09' W 123°02'0 0.0
2015-Feb-22 02:33N 49°09' W 123°02'0 0.0
2015-Feb-22 01:33N 49°09' W 123°02'0 0.0
2015-Feb-22 00:33N 49°09' W 123°02'0 0.0
2015-Feb-21 23:33N 49°09' W 123°02'0 0.0
2015-Feb-21 22:33N 49°09' W 123°02'0 0.0
2015-Feb-21 21:30N 49°09' W 123°02'0 0.0
2015-Feb-21 20:33N 49°09' W 123°02'0 0.0
2015-Feb-21 19:33N 49°09' W 123°02'0 0.0
2015-Feb-21 18:33N 49°09' W 123°02'0 0.0
2015-Feb-21 17:33N 49°09' W 123°02'0 0.0
2015-Feb-21 16:33N 49°09' W 123°02'0 0.0
2015-Feb-21 15:33N 49°09' W 123°02'6 6.1
2015-Feb-21 14:33N 49°07' W 123°11'10 9.7
2015-Feb-21 13:33N 49°07' W 123°26'10 9.9
2015-Feb-21 12:33N 49°11' W 123°40'9 8.6
2015-Feb-21 11:31N 49°11' W 123°54'1 1.5
2015-Feb-21 10:33N 49°10' W 123°56'0 0.0
2015-Feb-21 09:33N 49°10' W 123°56'5 4.8
2015-Feb-21 08:33N 49°12' W 123°49'10 9.7
2015-Feb-21 07:33N 49°10' W 123°35'9 9.2
2015-Feb-21 06:33N 49°07' W 123°22'1111.2
2015-Feb-21 05:33N 49°07' W 123°05'2 2.2
2015-Feb-21 04:33N 49°09' W 123°02'0 0.0
2015-Feb-21 03:33N 49°09' W 123°02'0 0.0
2015-Feb-21 02:33N 49°09' W 123°02'0 0.0
2015-Feb-21 01:33N 49°09' W 123°02'0 0.0
2015-Feb-21 00:33N 49°09' W 123°02'0 0.0
2015-Feb-20 23:33N 49°09' W 123°02'0 0.0
2015-Feb-20 22:33N 49°09' W 123°02'0 0.0
2015-Feb-20 21:33N 49°09' W 123°02'0 0.0
2015-Feb-20 20:33N 49°09' W 123°02'0 0.0
2015-Feb-20 19:33N 49°09' W 123°02'0 0.0
2015-Feb-20 18:33N 49°09' W 123°02'  
Track history (hours):
 
Tides and Currents Weather Stations Pressure Air Temp Water Temp Dewpoint Dewpoint Depression Visibility Wind Speed Wind Dir Waves Ship Positions

Arctic Taglu

Last reported at 2015-Mar-02 18:31 UTC. Time now 2015-Mar-02 19:05 UTC.
Position N 49°09' W 123°02'.

Length 33 m; draft 6 m.

Type: Tug. MMSI: 316003483.

Date/timePositionNaut miles runAvg speedWind from/ knotsBaromVisibWave heightAir tempDewpointWater temp
2015-Mar-02 18:31N 49°09' W 123°02'0 0.0
2015-Mar-02 17:31N 49°09' W 123°02'0 0.0
2015-Mar-02 16:31N 49°09' W 123°02'0 0.0
2015-Mar-02 15:31N 49°09' W 123°02'0 0.0
2015-Mar-02 14:31N 49°09' W 123°02'0 0.0
2015-Mar-02 13:28N 49°09' W 123°02'0 0.0
2015-Mar-02 12:31N 49°09' W 123°02'0 0.0
2015-Mar-02 11:31N 49°09' W 123°02'0 0.0
2015-Mar-02 10:31N 49°09' W 123°02'0 0.0
2015-Mar-02 09:31N 49°09' W 123°02'0 0.0
2015-Mar-02 08:31N 49°09' W 123°02'0 0.0
2015-Mar-02 07:31N 49°09' W 123°02'0 0.0
2015-Mar-02 06:31N 49°09' W 123°02'0 0.0
2015-Mar-02 05:31N 49°09' W 123°02'0 0.0
2015-Mar-02 04:31N 49°09' W 123°02'0 0.0
2015-Mar-02 03:31N 49°09' W 123°02'0 0.0
2015-Mar-02 02:31N 49°09' W 123°02'0 0.0
2015-Mar-02 01:31N 49°09' W 123°02'0 0.0
2015-Mar-02 00:31N 49°09' W 123°02'0 0.0
2015-Mar-01 23:31N 49°09' W 123°02'0 0.0
2015-Mar-01 22:31N 49°09' W 123°02'0 0.0
2015-Mar-01 21:31N 49°09' W 123°02'0 0.0
2015-Mar-01 20:31N 49°09' W 123°02'0 0.0
2015-Mar-01 19:31N 49°09' W 123°02'0 0.0
2015-Mar-01 18:28N 49°09' W 123°02'0 0.0
2015-Mar-01 17:31N 49°09' W 123°02'0 0.0
2015-Mar-01 16:31N 49°09' W 123°02'0 0.0
2015-Mar-01 15:31N 49°09' W 123°02'0 0.0
2015-Mar-01 14:31N 49°09' W 123°02'0 0.0
2015-Mar-01 13:31N 49°09' W 123°02'0 0.0
2015-Mar-01 12:31N 49°09' W 123°02'0 0.0
2015-Mar-01 11:31N 49°09' W 123°02'0 0.0
2015-Mar-01 10:31N 49°09' W 123°02'0 0.0
2015-Mar-01 09:31N 49°09' W 123°02'0 0.0
2015-Mar-01 08:28N 49°09' W 123°02'0 0.0
2015-Mar-01 07:31N 49°09' W 123°02'0 0.0
2015-Mar-01 06:31N 49°09' W 123°02'0 0.0
2015-Mar-01 05:31N 49°09' W 123°02'0 0.0
2015-Mar-01 04:31N 49°09' W 123°02'0 0.0
2015-Mar-01 03:31N 49°09' W 123°02'0 0.0
2015-Mar-01 02:31N 49°09' W 123°02'0 0.0
2015-Mar-01 01:31N 49°09' W 123°02'0 0.0
2015-Mar-01 00:31N 49°09' W 123°02'0 0.0
2015-Feb-28 23:31N 49°09' W 123°02'0 0.0
2015-Feb-28 22:31N 49°09' W 123°02'0 0.0
2015-Feb-28 21:31N 49°09' W 123°02'0 0.0
2015-Feb-28 20:31N 49°09' W 123°02'0 0.0
2015-Feb-28 19:31N 49°09' W 123°02'0 0.0
2015-Feb-28 18:31N 49°09' W 123°02'0 0.0
2015-Feb-28 17:33N 49°09' W 123°02'0 0.0
2015-Feb-28 16:33N 49°09' W 123°02'0 0.1
2015-Feb-28 15:33N 49°09' W 123°02'4 4.1
2015-Feb-28 14:33N 49°07' W 123°08'9 8.7
2015-Feb-28 13:33N 49°06' W 123°21'1010.0
2015-Feb-28 12:33N 49°10' W 123°35'10 9.8
2015-Feb-28 11:33N 49°13' W 123°50'5 5.0
2015-Feb-28 10:33N 49°10' W 123°56'0 0.0
2015-Feb-28 09:33N 49°10' W 123°56'5 4.8
2015-Feb-28 08:33N 49°13' W 123°50'1010.1
2015-Feb-28 07:33N 49°10' W 123°35'1010.0
2015-Feb-28 06:33N 49°07' W 123°21'1010.0
2015-Feb-28 05:33N 49°07' W 123°06'3 2.8
2015-Feb-28 04:33N 49°09' W 123°02'0 0.0
2015-Feb-28 03:33N 49°09' W 123°02'0 0.0
2015-Feb-28 02:33N 49°09' W 123°02'0 0.0
2015-Feb-28 01:33N 49°09' W 123°02'0 0.0
2015-Feb-28 00:33N 49°09' W 123°02'0 0.0
2015-Feb-27 23:33N 49°09' W 123°02'0 0.0
2015-Feb-27 22:33N 49°09' W 123°02'0 0.0
2015-Feb-27 21:33N 49°09' W 123°02'0 0.0
2015-Feb-27 20:33N 49°09' W 123°02'0 0.0
2015-Feb-27 19:33N 49°09' W 123°02'0 0.0
2015-Feb-27 18:33N 49°09' W 123°02'0 0.0
2015-Feb-27 17:33N 49°09' W 123°02'0 0.0
2015-Feb-27 16:33N 49°09' W 123°02'0 0.0
2015-Feb-27 15:33N 49°09' W 123°02'4 4.5
2015-Feb-27 14:33N 49°06' W 123°08'9 8.6
2015-Feb-27 13:33N 49°06' W 123°21'10 9.9
2015-Feb-27 12:33N 49°10' W 123°36'10 9.6
2015-Feb-27 11:33N 49°13' W 123°49'5 5.3
2015-Feb-27 10:33N 49°10' W 123°56'0 0.0
2015-Feb-27 09:33N 49°10' W 123°56'6 6.2
2015-Feb-27 08:33N 49°13' W 123°48'1010.4
2015-Feb-27 07:33N 49°09' W 123°33'1010.0
2015-Feb-27 06:33N 49°06' W 123°18'10 9.5
2015-Feb-27 05:33N 49°08' W 123°04'2 1.5
2015-Feb-27 04:33N 49°09' W 123°02'0 0.0
2015-Feb-27 03:33N 49°09' W 123°02'0 0.1
2015-Feb-27 02:33N 49°09' W 123°02'0 0.0
2015-Feb-27 01:33N 49°09' W 123°02'0 0.0
2015-Feb-27 00:33N 49°09' W 123°02'0 0.0
2015-Feb-26 23:33N 49°09' W 123°02'0 0.0
2015-Feb-26 22:33N 49°09' W 123°02'0 0.0
2015-Feb-26 21:33N 49°09' W 123°02'0 0.0
2015-Feb-26 20:33N 49°09' W 123°02'0 0.0
2015-Feb-26 19:33N 49°09' W 123°02'0 0.0
2015-Feb-26 18:33N 49°09' W 123°02'0 0.0
2015-Feb-26 17:33N 49°09' W 123°02'0 0.0
2015-Feb-26 16:33N 49°09' W 123°02'0 0.0
2015-Feb-26 15:33N 49°09' W 123°02'6 5.6
2015-Feb-26 14:33N 49°07' W 123°10'8 8.1
2015-Feb-26 13:33N 49°07' W 123°23'10 9.5
2015-Feb-26 12:33N 49°10' W 123°36'9 9.4
2015-Feb-26 11:33N 49°13' W 123°50'5 5.0
2015-Feb-26 10:33N 49°10' W 123°56'0 0.0
2015-Feb-26 09:33N 49°10' W 123°56'6 5.9
2015-Feb-26 08:33N 49°13' W 123°48'1010.3
2015-Feb-26 07:33N 49°09' W 123°33'1010.1
2015-Feb-26 06:33N 49°06' W 123°19'9 9.2
2015-Feb-26 05:33N 49°07' W 123°05'2 2.1
2015-Feb-26 04:33N 49°09' W 123°02'0 0.0
2015-Feb-26 03:33N 49°09' W 123°02'0 0.0
2015-Feb-26 02:33N 49°09' W 123°02'0 0.0
2015-Feb-26 01:33N 49°09' W 123°02'0 0.0
2015-Feb-26 00:33N 49°09' W 123°02'0 0.0
2015-Feb-25 23:33N 49°09' W 123°02'0 0.0
2015-Feb-25 22:33N 49°09' W 123°02'0 0.0
2015-Feb-25 21:33N 49°09' W 123°02'0 0.0
2015-Feb-25 20:33N 49°09' W 123°02'0 0.0
2015-Feb-25 19:33N 49°09' W 123°02'0 0.0
2015-Feb-25 18:33N 49°09' W 123°02'0 0.0
2015-Feb-25 17:33N 49°09' W 123°02'0 0.1
2015-Feb-25 16:33N 49°09' W 123°02'0 0.0
2015-Feb-25 15:33N 49°09' W 123°02'5 5.0
2015-Feb-25 14:33N 49°06' W 123°09'8 8.1
2015-Feb-25 13:33N 49°07' W 123°21'10 9.7
2015-Feb-25 12:33N 49°10' W 123°35'10 9.6
2015-Feb-25 11:33N 49°13' W 123°49'5 5.1
2015-Feb-25 10:33N 49°10' W 123°56'0 0.0
2015-Feb-25 09:33N 49°10' W 123°56'6 5.7
2015-Feb-25 08:33N 49°12' W 123°48'1010.0
2015-Feb-25 07:33N 49°09' W 123°33'10 9.8
2015-Feb-25 06:33N 49°06' W 123°19'9 9.1
2015-Feb-25 05:33N 49°07' W 123°05'2 2.4
2015-Feb-25 04:33N 49°09' W 123°02'0 0.0
2015-Feb-25 03:33N 49°09' W 123°02'0 0.1
2015-Feb-25 02:33N 49°09' W 123°02'0 0.0
2015-Feb-25 01:33N 49°09' W 123°02'0 0.0
2015-Feb-25 00:33N 49°09' W 123°02'0 0.0
2015-Feb-24 23:33N 49°09' W 123°02'0 0.0
2015-Feb-24 22:33N 49°09' W 123°02'0 0.0
2015-Feb-24 21:33N 49°09' W 123°02'0 0.0
2015-Feb-24 20:33N 49°09' W 123°02'0 0.0
2015-Feb-24 19:33N 49°09' W 123°02'0 0.0
2015-Feb-24 18:33N 49°09' W 123°02'0 0.0
2015-Feb-24 17:33N 49°09' W 123°02'0 0.1
2015-Feb-24 16:33N 49°09' W 123°02'0 0.0
2015-Feb-24 15:33N 49°09' W 123°02'5 5.0
2015-Feb-24 14:33N 49°07' W 123°09'9 8.5
2015-Feb-24 13:33N 49°06' W 123°22'10 9.8
2015-Feb-24 12:33N 49°10' W 123°36'10 9.5
2015-Feb-24 11:33N 49°13' W 123°50'5 4.5
2015-Feb-24 10:33N 49°10' W 123°56'0 0.0
2015-Feb-24 09:33N 49°10' W 123°56'6 6.1
2015-Feb-24 08:33N 49°12' W 123°47'10 9.7
2015-Feb-24 07:33N 49°09' W 123°33'10 9.7
2015-Feb-24 06:33N 49°06' W 123°19'9 9.1
2015-Feb-24 05:33N 49°07' W 123°05'2 2.2
2015-Feb-24 04:33N 49°09' W 123°02'0 0.0
2015-Feb-24 03:33N 49°09' W 123°02'0 0.0
2015-Feb-24 02:33N 49°09' W 123°02'0 0.0
2015-Feb-24 01:33N 49°09' W 123°02'0 0.0
2015-Feb-24 00:33N 49°09' W 123°02'0 0.0
2015-Feb-23 23:33N 49°09' W 123°02'0 0.0
2015-Feb-23 22:33N 49°09' W 123°02'0 0.0
2015-Feb-23 21:33N 49°09' W 123°02'0 0.0
2015-Feb-23 20:33N 49°09' W 123°02'0 0.0
2015-Feb-23 19:33N 49°09' W 123°02'0 0.0
2015-Feb-23 18:33N 49°09' W 123°02'0 0.0
2015-Feb-23 17:33N 49°09' W 123°02'0 0.0
2015-Feb-23 16:33N 49°09' W 123°02'0 0.0
2015-Feb-23 15:33N 49°09' W 123°02'0 0.0
2015-Feb-23 14:33N 49°09' W 123°02'0 0.0
2015-Feb-23 13:33N 49°09' W 123°02'0 0.0
2015-Feb-23 12:33N 49°09' W 123°02'0 0.0
2015-Feb-23 11:33N 49°09' W 123°02'0 0.0
2015-Feb-23 10:33N 49°09' W 123°02'0 0.0
2015-Feb-23 09:33N 49°09' W 123°02'0 0.0
2015-Feb-23 08:33N 49°09' W 123°02'0 0.0
2015-Feb-23 07:33N 49°09' W 123°02'0 0.0
2015-Feb-23 06:33N 49°09' W 123°02'0 0.0
2015-Feb-23 05:33N 49°09' W 123°02'0 0.0
2015-Feb-23 04:33N 49°09' W 123°02'0 0.0
2015-Feb-23 03:33N 49°09' W 123°02'0 0.0
2015-Feb-23 02:30N 49°09' W 123°02'0 0.0
2015-Feb-23 01:33N 49°09' W 123°02'0 0.0
2015-Feb-23 00:33N 49°09' W 123°02'0 0.0
2015-Feb-22 23:33N 49°09' W 123°02'0 0.0
2015-Feb-22 22:33N 49°09' W 123°02'0 0.0
2015-Feb-22 21:30N 49°09' W 123°02'0 0.0
2015-Feb-22 20:33N 49°09' W 123°02'0 0.0
2015-Feb-22 19:33N 49°09' W 123°02'0 0.0
2015-Feb-22 18:30N 49°09' W 123°02'0 0.0
2015-Feb-22 17:33N 49°09' W 123°02'0 0.0
2015-Feb-22 16:33N 49°09' W 123°02'0 0.0
2015-Feb-22 15:33N 49°09' W 123°02'0 0.0
2015-Feb-22 14:30N 49°09' W 123°02'0 0.0
2015-Feb-22 13:33N 49°09' W 123°02'0 0.0
2015-Feb-22 12:33N 49°09' W 123°02'0 0.0
2015-Feb-22 11:33N 49°09' W 123°02'0 0.0
2015-Feb-22 10:33N 49°09' W 123°02'0 0.0
2015-Feb-22 09:33N 49°09' W 123°02'0 0.0
2015-Feb-22 08:33N 49°09' W 123°02'0 0.0
2015-Feb-22 07:33N 49°09' W 123°02'0 0.0
2015-Feb-22 06:33N 49°09' W 123°02'0 0.0
2015-Feb-22 05:30N 49°09' W 123°02'0 0.0
2015-Feb-22 04:33N 49°09' W 123°02'0 0.0
2015-Feb-22 03:33N 49°09' W 123°02'0 0.0
2015-Feb-22 02:33N 49°09' W 123°02'0 0.0
2015-Feb-22 01:33N 49°09' W 123°02'0 0.0
2015-Feb-22 00:33N 49°09' W 123°02'0 0.0
2015-Feb-21 23:33N 49°09' W 123°02'0 0.0
2015-Feb-21 22:33N 49°09' W 123°02'0 0.0
2015-Feb-21 21:30N 49°09' W 123°02'0 0.0
2015-Feb-21 20:33N 49°09' W 123°02'0 0.0
2015-Feb-21 19:33N 49°09' W 123°02'0 0.0
2015-Feb-21 18:33N 49°09' W 123°02'0 0.0
2015-Feb-21 17:33N 49°09' W 123°02'0 0.0
2015-Feb-21 16:33N 49°09' W 123°02'0 0.0
2015-Feb-21 15:33N 49°09' W 123°02'6 6.1
2015-Feb-21 14:33N 49°07' W 123°11'10 9.7
2015-Feb-21 13:33N 49°07' W 123°26'10 9.9
2015-Feb-21 12:33N 49°11' W 123°40'9 8.6
2015-Feb-21 11:31N 49°11' W 123°54'1 1.5
2015-Feb-21 10:33N 49°10' W 123°56'0 0.0
2015-Feb-21 09:33N 49°10' W 123°56'5 4.8
2015-Feb-21 08:33N 49°12' W 123°49'10 9.7
2015-Feb-21 07:33N 49°10' W 123°35'9 9.2
2015-Feb-21 06:33N 49°07' W 123°22'1111.2
2015-Feb-21 05:33N 49°07' W 123°05'2 2.2
2015-Feb-21 04:33N 49°09' W 123°02'0 0.0
2015-Feb-21 03:33N 49°09' W 123°02'0 0.0
2015-Feb-21 02:33N 49°09' W 123°02'0 0.0
2015-Feb-21 01:33N 49°09' W 123°02'0 0.0
2015-Feb-21 00:33N 49°09' W 123°02'0 0.0
2015-Feb-20 23:33N 49°09' W 123°02'0 0.0
2015-Feb-20 22:33N 49°09' W 123°02'0 0.0
2015-Feb-20 21:33N 49°09' W 123°02'0 0.0
2015-Feb-20 20:33N 49°09' W 123°02'0 0.0
2015-Feb-20 19:33N 49°09' W 123°02'0 0.0
2015-Feb-20 18:33N 49°09' W 123°02'  

Dump ship's entire track history